Terminal Aerodrome Forecast
Issued by NWS Billings, MT

Home | Current Version | Previous Version | Text Only | Print | Product List | Glossary On
Versions: 1 2 3 4 5 6 7 8 9 10 11 12 13 14 15 16 17 18 19 20 21 22 23 24 25 26 27 28 29 30 31 32 33 34
000
FTUS45 KBYZ 270520
TAFMLS
TAF
KMLS 270520Z 2706/2806 VRB05KT P6SM -RA SCT005 BKN010 OVC025
     FM271000 VRB05KT P6SM VCFG BKN005 OVC010
      TEMPO 2710/2714 1SM BR OVC002
     FM271700 VRB05KT P6SM SCT025 SCT150
     FM280500 14006KT P6SM VCFG SCT002=

USA.gov is the U.S. government's official web portal to all federal, state and local government web resources and services.